sensor_id;sensor_type;location;lat;lon;timestamp;P1;durP1;ratioP1;P2;durP2;ratioP2
1995;SDS011;38556;47.068;15.408;2023-08-06T00:01:16;14.07;;;13.57;;
1995;SDS011;38556;47.068;15.408;2023-08-06T00:03:46;13.37;;;12.77;;
1995;SDS011;38556;47.068;15.408;2023-08-06T00:06:15;13.37;;;12.87;;
1995;SDS011;38556;47.068;15.408;2023-08-06T00:08:42;13.87;;;13.37;;
1995;SDS011;38556;47.068;15.408;2023-08-06T00:11:09;13.50;;;13.00;;
1995;SDS011;38556;47.068;15.408;2023-08-06T00:13:37;12.87;;;12.37;;
1995;SDS011;38556;47.068;15.408;2023-08-06T00:16:10;12.70;;;12.20;;
1995;SDS011;38556;47.068;15.408;2023-08-06T00:18:38;12.70;;;12.20;;
1995;SDS011;38556;47.068;15.408;2023-08-06T00:21:05;13.07;;;12.63;;
1995;SDS011;38556;47.068;15.408;2023-08-06T00:23:34;11.83;;;11.43;;
1995;SDS011;38556;47.068;15.408;2023-08-06T00:26:01;12.83;;;12.33;;
1995;SDS011;38556;47.068;15.408;2023-08-06T00:28:28;12.47;;;12.00;;
1995;SDS011;38556;47.068;15.408;2023-08-06T00:30:56;12.10;;;11.70;;
1995;SDS011;38556;47.068;15.408;2023-08-06T00:33:24;12.80;;;12.30;;
1995;SDS011;38556;47.068;15.408;2023-08-06T00:35:51;12.67;;;12.17;;
1995;SDS011;38556;47.068;15.408;2023-08-06T00:38:19;12.80;;;12.30;;
1995;SDS011;38556;47.068;15.408;2023-08-06T00:40:47;13.13;;;12.33;;
1995;SDS011;38556;47.068;15.408;2023-08-06T00:43:14;13.00;;;12.40;;
1995;SDS011;38556;47.068;15.408;2023-08-06T00:45:42;12.70;;;12.20;;
1995;SDS011;38556;47.068;15.408;2023-08-06T00:48:09;13.43;;;12.93;;
1995;SDS011;38556;47.068;15.408;2023-08-06T00:50:37;12.87;;;12.33;;
1995;SDS011;38556;47.068;15.408;2023-08-06T00:53:04;13.10;;;12.60;;
1995;SDS011;38556;47.068;15.408;2023-08-06T00:55:32;18.20;;;17.27;;
1995;SDS011;38556;47.068;15.408;2023-08-06T00:58:01;18.20;;;17.30;;
1995;SDS011;38556;47.068;15.408;2023-08-06T01:00:29;14.50;;;13.90;;
1995;SDS011;38556;47.068;15.408;2023-08-06T01:02:56;13.80;;;13.20;;
1995;SDS011;38556;47.068;15.408;2023-08-06T01:05:24;13.50;;;13.00;;
1995;SDS011;38556;47.068;15.408;2023-08-06T01:08:01;13.63;;;13.13;;
1995;SDS011;38556;47.068;15.408;2023-08-06T01:10:40;12.87;;;12.27;;
1995;SDS011;38556;47.068;15.408;2023-08-06T01:13:18;12.93;;;12.23;;
1995;SDS011;38556;47.068;15.408;2023-08-06T01:15:53;13.13;;;12.63;;
1995;SDS011;38556;47.068;15.408;2023-08-06T01:18:23;13.30;;;12.80;;
1995;SDS011;38556;47.068;15.408;2023-08-06T01:20:51;13.30;;;12.80;;
1995;SDS011;38556;47.068;15.408;2023-08-06T01:23:19;14.13;;;13.37;;
1995;SDS011;38556;47.068;15.408;2023-08-06T01:25:49;13.40;;;12.90;;
1995;SDS011;38556;47.068;15.408;2023-08-06T01:28:27;13.90;;;13.40;;
1995;SDS011;38556;47.068;15.408;2023-08-06T01:31:01;13.67;;;13.07;;
1995;SDS011;38556;47.068;15.408;2023-08-06T01:33:31;14.10;;;13.60;;
1995;SDS011;38556;47.068;15.408;2023-08-06T01:36:02;14.40;;;13.80;;
1995;SDS011;38556;47.068;15.408;2023-08-06T01:38:32;14.50;;;13.90;;
1995;SDS011;38556;47.068;15.408;2023-08-06T01:40:59;23.13;;;21.67;;
1995;SDS011;38556;47.068;15.408;2023-08-06T01:43:27;14.80;;;14.20;;
1995;SDS011;38556;47.068;15.408;2023-08-06T01:45:54;16.60;;;15.90;;
1995;SDS011;38556;47.068;15.408;2023-08-06T01:48:21;16.10;;;15.50;;
1995;SDS011;38556;47.068;15.408;2023-08-06T01:50:48;15.57;;;14.97;;
1995;SDS011;38556;47.068;15.408;2023-08-06T01:53:16;16.33;;;15.53;;
1995;SDS011;38556;47.068;15.408;2023-08-06T01:55:47;15.87;;;15.17;;
1995;SDS011;38556;47.068;15.408;2023-08-06T01:58:15;16.40;;;15.77;;
1995;SDS011;38556;47.068;15.408;2023-08-06T02:00:42;15.83;;;15.23;;
1995;SDS011;38556;47.068;15.408;2023-08-06T02:03:09;15.70;;;15.10;;
1995;SDS011;38556;47.068;15.408;2023-08-06T02:05:36;15.93;;;15.13;;
1995;SDS011;38556;47.068;15.408;2023-08-06T02:08:03;15.90;;;15.30;;
1995;SDS011;38556;47.068;15.408;2023-08-06T02:10:32;16.13;;;15.53;;
1995;SDS011;38556;47.068;15.408;2023-08-06T02:12:59;16.67;;;15.77;;
1995;SDS011;38556;47.068;15.408;2023-08-06T02:15:26;16.63;;;15.93;;
1995;SDS011;38556;47.068;15.408;2023-08-06T02:17:53;16.43;;;15.73;;
1995;SDS011;38556;47.068;15.408;2023-08-06T02:20:21;15.80;;;15.20;;
1995;SDS011;38556;47.068;15.408;2023-08-06T02:22:48;15.90;;;15.30;;
1995;SDS011;38556;47.068;15.408;2023-08-06T02:25:15;16.13;;;15.53;;
1995;SDS011;38556;47.068;15.408;2023-08-06T02:27:44;15.90;;;15.10;;
1995;SDS011;38556;47.068;15.408;2023-08-06T02:30:11;15.60;;;15.00;;
1995;SDS011;38556;47.068;15.408;2023-08-06T02:32:38;15.73;;;15.03;;
1995;SDS011;38556;47.068;15.408;2023-08-06T02:35:06;15.70;;;15.00;;
1995;SDS011;38556;47.068;15.408;2023-08-06T02:37:33;16.40;;;15.60;;
1995;SDS011;38556;47.068;15.408;2023-08-06T02:40:00;15.60;;;15.00;;
1995;SDS011;38556;47.068;15.408;2023-08-06T02:42:29;15.40;;;14.70;;
1995;SDS011;38556;47.068;15.408;2023-08-06T02:44:57;15.63;;;15.03;;
1995;SDS011;38556;47.068;15.408;2023-08-06T02:47:24;15.90;;;15.20;;
1995;SDS011;38556;47.068;15.408;2023-08-06T02:49:52;16.33;;;15.50;;
1995;SDS011;38556;47.068;15.408;2023-08-06T02:52:19;16.27;;;15.43;;
1995;SDS011;38556;47.068;15.408;2023-08-06T02:54:46;15.53;;;14.73;;
1995;SDS011;38556;47.068;15.408;2023-08-06T02:57:14;16.07;;;15.37;;
1995;SDS011;38556;47.068;15.408;2023-08-06T02:59:41;15.47;;;14.70;;
1995;SDS011;38556;47.068;15.408;2023-08-06T03:02:09;16.30;;;15.50;;
1995;SDS011;38556;47.068;15.408;2023-08-06T03:04:36;15.73;;;15.10;;
1995;SDS011;38556;47.068;15.408;2023-08-06T03:07:03;16.20;;;15.60;;
1995;SDS011;38556;47.068;15.408;2023-08-06T03:09:31;16.20;;;15.60;;
1995;SDS011;38556;47.068;15.408;2023-08-06T03:11:58;15.87;;;15.27;;
1995;SDS011;38556;47.068;15.408;2023-08-06T03:14:25;16.03;;;15.43;;
1995;SDS011;38556;47.068;15.408;2023-08-06T03:16:52;16.37;;;15.57;;
1995;SDS011;38556;47.068;15.408;2023-08-06T03:19:21;15.50;;;14.90;;
1995;SDS011;38556;47.068;15.408;2023-08-06T03:21:48;15.77;;;15.07;;
1995;SDS011;38556;47.068;15.408;2023-08-06T03:24:15;15.17;;;14.47;;
1995;SDS011;38556;47.068;15.408;2023-08-06T03:26:43;15.30;;;14.60;;
1995;SDS011;38556;47.068;15.408;2023-08-06T03:29:10;14.80;;;14.20;;
1995;SDS011;38556;47.068;15.408;2023-08-06T03:31:36;14.80;;;14.10;;
1995;SDS011;38556;47.068;15.408;2023-08-06T03:34:03;15.00;;;14.40;;
1995;SDS011;38556;47.068;15.408;2023-08-06T03:36:33;16.37;;;15.70;;
1995;SDS011;38556;47.068;15.408;2023-08-06T03:39:00;15.47;;;14.87;;
1995;SDS011;38556;47.068;15.408;2023-08-06T03:41:27;15.50;;;14.80;;
1995;SDS011;38556;47.068;15.408;2023-08-06T03:43:54;16.17;;;15.10;;
1995;SDS011;38556;47.068;15.408;2023-08-06T03:46:21;15.40;;;14.60;;
1995;SDS011;38556;47.068;15.408;2023-08-06T03:48:49;16.10;;;15.40;;
1995;SDS011;38556;47.068;15.408;2023-08-06T03:51:16;16.07;;;15.40;;
1995;SDS011;38556;47.068;15.408;2023-08-06T03:53:45;15.63;;;15.03;;
1995;SDS011;38556;47.068;15.408;2023-08-06T03:56:12;16.47;;;15.87;;
1995;SDS011;38556;47.068;15.408;2023-08-06T03:58:39;16.00;;;15.20;;
1995;SDS011;38556;47.068;15.408;2023-08-06T04:01:07;15.87;;;15.23;;
1995;SDS011;38556;47.068;15.408;2023-08-06T04:03:34;16.33;;;15.63;;
1995;SDS011;38556;47.068;15.408;2023-08-06T04:06:02;15.70;;;15.00;;
1995;SDS011;38556;47.068;15.408;2023-08-06T04:08:29;15.80;;;15.20;;
1995;SDS011;38556;47.068;15.408;2023-08-06T04:10:59;16.00;;;15.10;;
1995;SDS011;38556;47.068;15.408;2023-08-06T04:13:26;15.40;;;14.80;;
1995;SDS011;38556;47.068;15.408;2023-08-06T04:15:53;15.13;;;14.43;;
1995;SDS011;38556;47.068;15.408;2023-08-06T04:18:21;15.30;;;14.70;;
1995;SDS011;38556;47.068;15.408;2023-08-06T04:20:48;15.77;;;14.87;;
1995;SDS011;38556;47.068;15.408;2023-08-06T04:23:18;15.20;;;14.60;;
1995;SDS011;38556;47.068;15.408;2023-08-06T04:25:45;14.93;;;14.43;;
1995;SDS011;38556;47.068;15.408;2023-08-06T04:28:13;15.13;;;14.60;;
1995;SDS011;38556;47.068;15.408;2023-08-06T04:30:41;14.90;;;14.20;;
1995;SDS011;38556;47.068;15.408;2023-08-06T04:33:08;14.37;;;13.80;;
1995;SDS011;38556;47.068;15.408;2023-08-06T04:35:35;14.87;;;13.97;;
1995;SDS011;38556;47.068;15.408;2023-08-06T04:38:02;15.00;;;14.20;;
1995;SDS011;38556;47.068;15.408;2023-08-06T04:40:29;15.83;;;15.13;;
1995;SDS011;38556;47.068;15.408;2023-08-06T04:42:59;16.63;;;15.83;;
1995;SDS011;38556;47.068;15.408;2023-08-06T04:45:28;15.40;;;14.80;;
1995;SDS011;38556;47.068;15.408;2023-08-06T04:47:55;16.17;;;15.57;;
1995;SDS011;38556;47.068;15.408;2023-08-06T04:50:22;16.40;;;15.50;;
1995;SDS011;38556;47.068;15.408;2023-08-06T04:52:49;16.20;;;15.60;;
1995;SDS011;38556;47.068;15.408;2023-08-06T04:55:16;16.03;;;15.43;;
1995;SDS011;38556;47.068;15.408;2023-08-06T04:57:44;16.43;;;15.70;;
1995;SDS011;38556;47.068;15.408;2023-08-06T05:00:12;16.70;;;15.90;;
1995;SDS011;38556;47.068;15.408;2023-08-06T05:02:41;16.17;;;15.47;;
1995;SDS011;38556;47.068;15.408;2023-08-06T05:05:08;17.17;;;16.47;;
1995;SDS011;38556;47.068;15.408;2023-08-06T05:07:36;16.67;;;15.97;;
1995;SDS011;38556;47.068;15.408;2023-08-06T05:10:03;16.10;;;15.50;;
1995;SDS011;38556;47.068;15.408;2023-08-06T05:12:31;16.63;;;15.97;;
1995;SDS011;38556;47.068;15.408;2023-08-06T05:14:58;18.67;;;17.30;;
1995;SDS011;38556;47.068;15.408;2023-08-06T05:17:25;16.43;;;15.80;;
1995;SDS011;38556;47.068;15.408;2023-08-06T05:19:55;15.90;;;15.30;;
1995;SDS011;38556;47.068;15.408;2023-08-06T05:22:22;15.67;;;15.07;;
1995;SDS011;38556;47.068;15.408;2023-08-06T05:24:49;16.03;;;15.43;;
1995;SDS011;38556;47.068;15.408;2023-08-06T05:27:16;16.60;;;15.80;;
1995;SDS011;38556;47.068;15.408;2023-08-06T05:29:44;17.10;;;16.40;;
1995;SDS011;38556;47.068;15.408;2023-08-06T05:32:11;17.60;;;16.80;;
1995;SDS011;38556;47.068;15.408;2023-08-06T05:34:38;17.30;;;16.60;;
1995;SDS011;38556;47.068;15.408;2023-08-06T05:37:08;17.13;;;16.43;;
1995;SDS011;38556;47.068;15.408;2023-08-06T05:39:35;17.40;;;16.30;;
1995;SDS011;38556;47.068;15.408;2023-08-06T05:42:03;17.20;;;16.50;;
1995;SDS011;38556;47.068;15.408;2023-08-06T05:44:31;20.10;;;19.10;;
1995;SDS011;38556;47.068;15.408;2023-08-06T05:46:58;19.30;;;18.40;;
1995;SDS011;38556;47.068;15.408;2023-08-06T05:49:25;18.67;;;17.83;;
1995;SDS011;38556;47.068;15.408;2023-08-06T05:51:53;18.00;;;17.30;;
1995;SDS011;38556;47.068;15.408;2023-08-06T05:54:21;18.80;;;17.80;;
1995;SDS011;38556;47.068;15.408;2023-08-06T05:56:49;18.13;;;17.30;;
1995;SDS011;38556;47.068;15.408;2023-08-06T05:59:16;17.67;;;16.97;;
1995;SDS011;38556;47.068;15.408;2023-08-06T06:01:43;18.30;;;17.60;;
1995;SDS011;38556;47.068;15.408;2023-08-06T06:04:11;18.20;;;17.50;;
1995;SDS011;38556;47.068;15.408;2023-08-06T06:06:38;18.00;;;17.30;;
1995;SDS011;38556;47.068;15.408;2023-08-06T06:09:07;17.63;;;16.93;;
1995;SDS011;38556;47.068;15.408;2023-08-06T06:11:36;18.60;;;17.80;;
1995;SDS011;38556;47.068;15.408;2023-08-06T06:14:03;20.40;;;18.90;;
1995;SDS011;38556;47.068;15.408;2023-08-06T06:16:32;18.53;;;17.70;;
1995;SDS011;38556;47.068;15.408;2023-08-06T06:18:59;17.63;;;16.53;;
1995;SDS011;38556;47.068;15.408;2023-08-06T06:21:26;16.07;;;15.37;;
1995;SDS011;38556;47.068;15.408;2023-08-06T06:23:53;16.67;;;15.97;;
1995;SDS011;38556;47.068;15.408;2023-08-06T06:26:21;16.83;;;15.83;;
1995;SDS011;38556;47.068;15.408;2023-08-06T06:28:50;15.10;;;14.50;;
1995;SDS011;38556;47.068;15.408;2023-08-06T06:31:17;15.53;;;14.93;;
1995;SDS011;38556;47.068;15.408;2023-08-06T06:33:44;15.10;;;14.50;;
1995;SDS011;38556;47.068;15.408;2023-08-06T06:36:12;15.70;;;15.00;;
1995;SDS011;38556;47.068;15.408;2023-08-06T06:38:39;14.60;;;14.00;;
1995;SDS011;38556;47.068;15.408;2023-08-06T06:41:07;14.90;;;14.30;;
1995;SDS011;38556;47.068;15.408;2023-08-06T06:43:34;14.70;;;14.20;;
1995;SDS011;38556;47.068;15.408;2023-08-06T06:46:04;15.77;;;15.17;;
1995;SDS011;38556;47.068;15.408;2023-08-06T06:48:32;15.70;;;15.03;;
1995;SDS011;38556;47.068;15.408;2023-08-06T06:51:00;16.37;;;15.57;;
1995;SDS011;38556;47.068;15.408;2023-08-06T06:53:27;15.60;;;15.00;;
1995;SDS011;38556;47.068;15.408;2023-08-06T06:55:54;16.10;;;15.40;;
1995;SDS011;38556;47.068;15.408;2023-08-06T06:58:21;17.23;;;16.50;;
1995;SDS011;38556;47.068;15.408;2023-08-06T07:00:49;18.00;;;17.07;;
1995;SDS011;38556;47.068;15.408;2023-08-06T07:03:19;18.03;;;17.33;;
1995;SDS011;38556;47.068;15.408;2023-08-06T07:05:46;18.00;;;17.20;;
1995;SDS011;38556;47.068;15.408;2023-08-06T07:08:14;18.07;;;17.37;;
1995;SDS011;38556;47.068;15.408;2023-08-06T07:10:41;18.60;;;17.70;;
1995;SDS011;38556;47.068;15.408;2023-08-06T07:13:09;18.60;;;17.80;;
1995;SDS011;38556;47.068;15.408;2023-08-06T07:15:37;19.00;;;18.20;;
1995;SDS011;38556;47.068;15.408;2023-08-06T07:18:04;18.27;;;17.57;;
1995;SDS011;38556;47.068;15.408;2023-08-06T07:20:33;18.67;;;17.83;;
1995;SDS011;38556;47.068;15.408;2023-08-06T07:23:00;18.63;;;17.80;;
1995;SDS011;38556;47.068;15.408;2023-08-06T07:25:27;17.90;;;17.20;;
1995;SDS011;38556;47.068;15.408;2023-08-06T07:27:55;19.50;;;18.53;;
1995;SDS011;38556;47.068;15.408;2023-08-06T07:30:22;18.20;;;17.30;;
1995;SDS011;38556;47.068;15.408;2023-08-06T07:32:49;17.67;;;16.97;;
1995;SDS011;38556;47.068;15.408;2023-08-06T07:35:17;18.27;;;17.47;;
1995;SDS011;38556;47.068;15.408;2023-08-06T07:37:45;18.00;;;17.20;;
1995;SDS011;38556;47.068;15.408;2023-08-06T07:40:13;17.70;;;16.90;;
1995;SDS011;38556;47.068;15.408;2023-08-06T07:42:40;18.70;;;17.80;;
1995;SDS011;38556;47.068;15.408;2023-08-06T07:45:08;18.40;;;17.60;;
1995;SDS011;38556;47.068;15.408;2023-08-06T07:47:36;18.30;;;17.50;;
1995;SDS011;38556;47.068;15.408;2023-08-06T07:50:04;17.70;;;17.00;;
1995;SDS011;38556;47.068;15.408;2023-08-06T07:52:32;19.00;;;18.20;;
1995;SDS011;38556;47.068;15.408;2023-08-06T07:55:00;20.73;;;19.63;;
1995;SDS011;38556;47.068;15.408;2023-08-06T07:57:30;19.10;;;18.20;;
1995;SDS011;38556;47.068;15.408;2023-08-06T07:59:57;18.80;;;17.93;;
1995;SDS011;38556;47.068;15.408;2023-08-06T08:02:24;18.77;;;17.97;;
1995;SDS011;38556;47.068;15.408;2023-08-06T08:04:51;17.47;;;16.77;;
1995;SDS011;38556;47.068;15.408;2023-08-06T08:07:19;18.20;;;17.40;;
1995;SDS011;38556;47.068;15.408;2023-08-06T08:09:46;18.93;;;18.07;;
1995;SDS011;38556;47.068;15.408;2023-08-06T08:12:15;18.07;;;17.37;;
1995;SDS011;38556;47.068;15.408;2023-08-06T08:14:43;17.80;;;16.90;;
1995;SDS011;38556;47.068;15.408;2023-08-06T08:17:10;17.27;;;16.57;;
1995;SDS011;38556;47.068;15.408;2023-08-06T08:19:38;17.80;;;17.00;;
1995;SDS011;38556;47.068;15.408;2023-08-06T08:22:06;17.03;;;16.33;;
1995;SDS011;38556;47.068;15.408;2023-08-06T08:24:33;17.50;;;16.70;;
1995;SDS011;38556;47.068;15.408;2023-08-06T08:27:01;17.37;;;16.67;;
1995;SDS011;38556;47.068;15.408;2023-08-06T08:29:30;16.83;;;16.13;;
1995;SDS011;38556;47.068;15.408;2023-08-06T08:31:57;16.27;;;15.67;;
1995;SDS011;38556;47.068;15.408;2023-08-06T08:34:24;16.23;;;15.63;;
1995;SDS011;38556;47.068;15.408;2023-08-06T08:36:52;15.93;;;15.20;;
1995;SDS011;38556;47.068;15.408;2023-08-06T08:39:19;16.97;;;16.27;;
1995;SDS011;38556;47.068;15.408;2023-08-06T08:41:46;16.03;;;15.33;;
1995;SDS011;38556;47.068;15.408;2023-08-06T08:44:14;15.50;;;14.90;;
1995;SDS011;38556;47.068;15.408;2023-08-06T08:46:44;15.93;;;15.23;;
1995;SDS011;38556;47.068;15.408;2023-08-06T08:49:13;16.30;;;15.70;;
1995;SDS011;38556;47.068;15.408;2023-08-06T08:51:40;15.43;;;14.83;;
1995;SDS011;38556;47.068;15.408;2023-08-06T08:54:08;15.73;;;15.03;;
1995;SDS011;38556;47.068;15.408;2023-08-06T08:56:39;15.43;;;14.83;;
1995;SDS011;38556;47.068;15.408;2023-08-06T08:59:07;16.00;;;15.27;;
1995;SDS011;38556;47.068;15.408;2023-08-06T09:01:34;16.20;;;15.50;;
1995;SDS011;38556;47.068;15.408;2023-08-06T09:04:04;16.17;;;15.57;;
1995;SDS011;38556;47.068;15.408;2023-08-06T09:06:32;15.33;;;14.70;;
1995;SDS011;38556;47.068;15.408;2023-08-06T09:09:05;15.30;;;14.70;;
1995;SDS011;38556;47.068;15.408;2023-08-06T09:11:35;18.00;;;17.00;;
1995;SDS011;38556;47.068;15.408;2023-08-06T09:14:06;16.30;;;15.70;;
1995;SDS011;38556;47.068;15.408;2023-08-06T09:16:34;17.20;;;16.40;;
1995;SDS011;38556;47.068;15.408;2023-08-06T09:19:07;16.50;;;15.80;;
1995;SDS011;38556;47.068;15.408;2023-08-06T09:21:36;15.40;;;14.80;;
1995;SDS011;38556;47.068;15.408;2023-08-06T09:24:08;15.63;;;15.03;;
1995;SDS011;38556;47.068;15.408;2023-08-06T09:26:36;14.87;;;14.27;;
1995;SDS011;38556;47.068;15.408;2023-08-06T09:29:05;14.07;;;13.53;;
1995;SDS011;38556;47.068;15.408;2023-08-06T09:31:33;14.67;;;14.17;;
1995;SDS011;38556;47.068;15.408;2023-08-06T09:34:11;15.27;;;14.57;;
1995;SDS011;38556;47.068;15.408;2023-08-06T09:36:41;15.00;;;14.40;;
1995;SDS011;38556;47.068;15.408;2023-08-06T09:39:15;15.30;;;14.70;;
1995;SDS011;38556;47.068;15.408;2023-08-06T09:41:43;14.63;;;14.03;;
1995;SDS011;38556;47.068;15.408;2023-08-06T09:44:15;14.87;;;14.27;;
1995;SDS011;38556;47.068;15.408;2023-08-06T09:46:46;15.00;;;14.30;;
1995;SDS011;38556;47.068;15.408;2023-08-06T09:49:17;14.63;;;14.00;;
1995;SDS011;38556;47.068;15.408;2023-08-06T09:51:46;15.27;;;14.67;;
1995;SDS011;38556;47.068;15.408;2023-08-06T09:54:16;14.97;;;14.27;;
1995;SDS011;38556;47.068;15.408;2023-08-06T09:56:44;15.00;;;14.30;;
1995;SDS011;38556;47.068;15.408;2023-08-06T09:59:11;15.37;;;14.67;;
1995;SDS011;38556;47.068;15.408;2023-08-06T10:01:41;14.80;;;14.10;;
1995;SDS011;38556;47.068;15.408;2023-08-06T10:04:08;14.13;;;13.53;;
1995;SDS011;38556;47.068;15.408;2023-08-06T10:06:38;14.50;;;13.90;;
1995;SDS011;38556;47.068;15.408;2023-08-06T10:09:06;15.17;;;14.47;;
1995;SDS011;38556;47.068;15.408;2023-08-06T10:11:34;15.50;;;14.70;;
1995;SDS011;38556;47.068;15.408;2023-08-06T10:14:05;16.07;;;15.43;;
1995;SDS011;38556;47.068;15.408;2023-08-06T10:16:36;15.20;;;14.50;;
1995;SDS011;38556;47.068;15.408;2023-08-06T10:19:05;15.20;;;14.60;;
1995;SDS011;38556;47.068;15.408;2023-08-06T10:21:39;14.90;;;14.30;;
1995;SDS011;38556;47.068;15.408;2023-08-06T10:24:06;14.20;;;13.60;;
1995;SDS011;38556;47.068;15.408;2023-08-06T10:26:35;17.00;;;16.20;;
1995;SDS011;38556;47.068;15.408;2023-08-06T10:32:03;14.70;;;13.90;;
1995;SDS011;38556;47.068;15.408;2023-08-06T10:37:21;14.90;;;14.27;;
1995;SDS011;38556;47.068;15.408;2023-08-06T10:39:49;15.33;;;14.70;;
1995;SDS011;38556;47.068;15.408;2023-08-06T10:42:26;15.33;;;14.63;;
1995;SDS011;38556;47.068;15.408;2023-08-06T10:45:13;15.07;;;14.47;;
1995;SDS011;38556;47.068;15.408;2023-08-06T10:47:42;15.53;;;14.73;;
1995;SDS011;38556;47.068;15.408;2023-08-06T10:50:11;15.10;;;14.50;;
1995;SDS011;38556;47.068;15.408;2023-08-06T10:52:43;15.53;;;14.83;;
1995;SDS011;38556;47.068;15.408;2023-08-06T10:55:10;15.93;;;15.13;;
1995;SDS011;38556;47.068;15.408;2023-08-06T10:57:38;16.40;;;15.70;;
1995;SDS011;38556;47.068;15.408;2023-08-06T11:00:06;18.03;;;16.70;;
1995;SDS011;38556;47.068;15.408;2023-08-06T11:02:34;15.27;;;14.57;;
1995;SDS011;38556;47.068;15.408;2023-08-06T11:05:06;15.80;;;15.00;;
1995;SDS011;38556;47.068;15.408;2023-08-06T11:07:34;15.60;;;14.80;;
1995;SDS011;38556;47.068;15.408;2023-08-06T11:10:03;15.73;;;15.03;;
1995;SDS011;38556;47.068;15.408;2023-08-06T11:12:32;16.30;;;15.50;;
1995;SDS011;38556;47.068;15.408;2023-08-06T11:14:59;16.17;;;15.37;;
1995;SDS011;38556;47.068;15.408;2023-08-06T11:17:28;16.87;;;16.00;;
1995;SDS011;38556;47.068;15.408;2023-08-06T11:19:58;16.73;;;15.93;;
1995;SDS011;38556;47.068;15.408;2023-08-06T11:22:26;16.87;;;16.13;;
1995;SDS011;38556;47.068;15.408;2023-08-06T11:24:53;16.77;;;16.07;;
1995;SDS011;38556;47.068;15.408;2023-08-06T11:27:23;17.50;;;16.63;;
1995;SDS011;38556;47.068;15.408;2023-08-06T11:29:52;16.83;;;15.93;;
1995;SDS011;38556;47.068;15.408;2023-08-06T11:32:19;16.80;;;16.07;;
1995;SDS011;38556;47.068;15.408;2023-08-06T11:34:47;17.30;;;16.50;;
1995;SDS011;38556;47.068;15.408;2023-08-06T11:37:14;17.40;;;16.50;;
1995;SDS011;38556;47.068;15.408;2023-08-06T11:39:45;17.37;;;16.57;;
1995;SDS011;38556;47.068;15.408;2023-08-06T11:42:14;17.20;;;16.40;;
1995;SDS011;38556;47.068;15.408;2023-08-06T11:44:43;17.43;;;16.53;;
1995;SDS011;38556;47.068;15.408;2023-08-06T11:47:15;17.57;;;16.73;;
1995;SDS011;38556;47.068;15.408;2023-08-06T11:49:44;16.77;;;15.97;;
1995;SDS011;38556;47.068;15.408;2023-08-06T11:52:16;18.70;;;16.93;;
1995;SDS011;38556;47.068;15.408;2023-08-06T11:54:46;16.73;;;16.03;;
1995;SDS011;38556;47.068;15.408;2023-08-06T11:57:15;16.57;;;15.80;;
1995;SDS011;38556;47.068;15.408;2023-08-06T11:59:44;17.37;;;16.20;;
1995;SDS011;38556;47.068;15.408;2023-08-06T12:02:11;17.53;;;16.53;;
1995;SDS011;38556;47.068;15.408;2023-08-06T12:05:01;16.90;;;16.03;;
1995;SDS011;38556;47.068;15.408;2023-08-06T12:07:31;16.70;;;15.90;;
1995;SDS011;38556;47.068;15.408;2023-08-06T12:09:59;66.30;;;34.13;;
1995;SDS011;38556;47.068;15.408;2023-08-06T12:12:26;31.30;;;24.40;;
1995;SDS011;38556;47.068;15.408;2023-08-06T12:14:56;71.07;;;34.63;;
1995;SDS011;38556;47.068;15.408;2023-08-06T12:17:23;24.27;;;21.67;;
1995;SDS011;38556;47.068;15.408;2023-08-06T12:19:51;17.60;;;16.70;;
1995;SDS011;38556;47.068;15.408;2023-08-06T12:22:19;18.63;;;17.07;;
1995;SDS011;38556;47.068;15.408;2023-08-06T12:24:46;17.97;;;16.87;;
1995;SDS011;38556;47.068;15.408;2023-08-06T12:27:14;20.03;;;17.10;;
1995;SDS011;38556;47.068;15.408;2023-08-06T12:29:41;16.33;;;15.57;;
1995;SDS011;38556;47.068;15.408;2023-08-06T12:32:11;16.03;;;15.33;;
1995;SDS011;38556;47.068;15.408;2023-08-06T12:34:38;16.80;;;15.80;;
1995;SDS011;38556;47.068;15.408;2023-08-06T12:37:07;16.40;;;15.70;;
1995;SDS011;38556;47.068;15.408;2023-08-06T12:39:34;16.23;;;15.53;;
1995;SDS011;38556;47.068;15.408;2023-08-06T12:42:02;15.80;;;15.20;;
1995;SDS011;38556;47.068;15.408;2023-08-06T12:44:31;16.33;;;15.63;;
1995;SDS011;38556;47.068;15.408;2023-08-06T12:46:58;16.23;;;15.53;;
1995;SDS011;38556;47.068;15.408;2023-08-06T12:49:27;16.47;;;15.57;;
1995;SDS011;38556;47.068;15.408;2023-08-06T12:51:55;15.77;;;15.07;;
1995;SDS011;38556;47.068;15.408;2023-08-06T12:54:24;15.73;;;15.07;;
1995;SDS011;38556;47.068;15.408;2023-08-06T12:56:52;16.00;;;15.10;;
1995;SDS011;38556;47.068;15.408;2023-08-06T12:59:20;16.00;;;15.20;;
1995;SDS011;38556;47.068;15.408;2023-08-06T13:01:47;15.60;;;14.90;;
1995;SDS011;38556;47.068;15.408;2023-08-06T13:04:16;16.07;;;15.37;;
1995;SDS011;38556;47.068;15.408;2023-08-06T13:06:47;15.70;;;14.90;;
1995;SDS011;38556;47.068;15.408;2023-08-06T13:09:16;15.73;;;15.10;;
1995;SDS011;38556;47.068;15.408;2023-08-06T13:11:45;17.23;;;16.33;;
1995;SDS011;38556;47.068;15.408;2023-08-06T13:14:16;16.47;;;15.63;;
1995;SDS011;38556;47.068;15.408;2023-08-06T13:16:45;16.07;;;15.37;;
1995;SDS011;38556;47.068;15.408;2023-08-06T13:19:14;15.80;;;15.10;;
1995;SDS011;38556;47.068;15.408;2023-08-06T13:21:59;16.10;;;15.30;;
1995;SDS011;38556;47.068;15.408;2023-08-06T13:24:30;16.20;;;15.50;;
1995;SDS011;38556;47.068;15.408;2023-08-06T13:27:00;16.50;;;15.70;;
1995;SDS011;38556;47.068;15.408;2023-08-06T13:29:29;15.77;;;15.17;;
1995;SDS011;38556;47.068;15.408;2023-08-06T13:31:58;16.90;;;16.00;;
1995;SDS011;38556;47.068;15.408;2023-08-06T13:34:27;15.87;;;15.27;;
1995;SDS011;38556;47.068;15.408;2023-08-06T13:36:56;16.40;;;15.60;;
1995;SDS011;38556;47.068;15.408;2023-08-06T13:39:26;16.10;;;15.40;;
1995;SDS011;38556;47.068;15.408;2023-08-06T13:41:56;15.50;;;14.90;;
1995;SDS011;38556;47.068;15.408;2023-08-06T13:44:24;15.60;;;15.00;;
1995;SDS011;38556;47.068;15.408;2023-08-06T13:46:55;16.27;;;15.57;;
1995;SDS011;38556;47.068;15.408;2023-08-06T13:49:23;15.10;;;14.50;;
1995;SDS011;38556;47.068;15.408;2023-08-06T13:51:52;14.90;;;14.30;;
1995;SDS011;38556;47.068;15.408;2023-08-06T13:54:22;15.83;;;14.90;;
1995;SDS011;38556;47.068;15.408;2023-08-06T13:56:51;15.10;;;14.50;;
1995;SDS011;38556;47.068;15.408;2023-08-06T13:59:20;15.73;;;15.13;;
1995;SDS011;38556;47.068;15.408;2023-08-06T14:01:50;15.70;;;15.00;;
1995;SDS011;38556;47.068;15.408;2023-08-06T14:04:20;15.53;;;14.87;;
1995;SDS011;38556;47.068;15.408;2023-08-06T14:06:48;15.07;;;14.47;;
1995;SDS011;38556;47.068;15.408;2023-08-06T14:09:18;15.33;;;14.73;;
1995;SDS011;38556;47.068;15.408;2023-08-06T14:11:48;15.90;;;15.20;;
1995;SDS011;38556;47.068;15.408;2023-08-06T14:14:17;16.20;;;15.50;;
1995;SDS011;38556;47.068;15.408;2023-08-06T14:16:51;16.10;;;15.47;;
1995;SDS011;38556;47.068;15.408;2023-08-06T14:19:21;15.97;;;15.37;;
1995;SDS011;38556;47.068;15.408;2023-08-06T14:21:49;15.67;;;15.07;;
1995;SDS011;38556;47.068;15.408;2023-08-06T14:24:18;15.97;;;15.27;;
1995;SDS011;38556;47.068;15.408;2023-08-06T14:26:49;15.87;;;15.23;;
1995;SDS011;38556;47.068;15.408;2023-08-06T14:29:18;15.63;;;14.97;;
1995;SDS011;38556;47.068;15.408;2023-08-06T14:31:49;16.00;;;15.30;;
1995;SDS011;38556;47.068;15.408;2023-08-06T14:34:18;16.07;;;15.37;;